Time;durP1;ratioP1;P1;durP2;ratioP2;P2;SDS_P1;SDS_P2;PMS_P1;PMS_P2;Temp;Humidity;BMP_temperature;BMP_pressure;BME280_temperature;BME280_humidity;BME280_pressure;Samples;Min_cycle;Max_cycle;Signal;HPM_P1;HPM_P2
2022/05/18 00:00:09;;;;;;;3.20;2.60;;;;;;;16.48;64.69;101768.91;6218228;23;20016;-80
2022/05/18 00:05:10;;;;;;;3.10;2.53;;;;;;;16.39;65.20;101771.78;6215462;22;20023;-79
2022/05/18 00:07:35;;;;;;;2.80;2.50;;;;;;;16.38;65.34;101779.69;6245753;23;20008;-80
2022/05/18 00:10:00;;;;;;;3.43;2.70;;;;;;;16.34;65.21;101774.50;6245457;23;20084;-80
2022/05/18 00:12:26;;;;;;;3.43;2.80;;;;;;;16.32;65.14;101780.69;6243802;23;20344;-80
2022/05/18 00:14:52;;;;;;;3.00;2.63;;;;;;;16.29;65.62;101779.00;6244883;23;20456;-80
2022/05/18 00:17:18;;;;;;;3.95;2.67;;;;;;;16.26;65.25;101781.69;6245704;23;20019;-80
2022/05/18 00:19:43;;;;;;;3.33;2.70;;;;;;;16.23;65.71;101780.88;6244247;23;20028;-80
2022/05/18 00:22:09;;;;;;;3.13;2.67;;;;;;;16.18;65.65;101779.25;6244345;23;20008;-80
2022/05/18 00:30:33;;;;;;;2.92;2.60;;;;;;;16.01;66.33;101776.16;6245000;23;20026;-80
2022/05/18 00:33:03;;;;;;;;;;;;;;;16.02;66.36;101780.50;6244574;23;20012;-80
2022/05/18 00:35:39;;;;;;;5.13;3.17;;;;;;;15.96;66.21;101784.13;6245474;23;20309;-80
2022/05/18 00:38:07;;;;;;;3.40;2.67;;;;;;;15.93;66.75;101780.72;6245353;23;20469;-80
2022/05/18 00:40:32;;;;;;;4.07;2.92;;;;;;;15.87;66.64;101787.84;6245472;23;20004;-80
2022/05/18 00:42:57;;;;;;;2.97;2.67;;;;;;;15.83;66.73;101780.91;6247034;23;20040;-80
2022/05/18 00:45:26;;;;;;;3.30;3.00;;;;;;;15.83;66.85;101791.38;6247275;23;20409;-80
2022/05/18 00:47:52;;;;;;;3.55;2.83;;;;;;;15.77;66.82;101783.63;6246325;23;20011;-80
2022/05/18 00:50:31;;;;;;;3.57;2.90;;;;;;;15.75;67.05;101781.06;6247428;23;20004;-80
2022/05/18 00:53:19;;;;;;;3.97;2.60;;;;;;;15.70;67.25;101782.06;6247413;23;20008;-80
2022/05/18 00:55:49;;;;;;;3.67;2.72;;;;;;;15.68;67.24;101781.22;6245553;23;20000;-80
2022/05/18 00:58:29;;;;;;;3.72;2.60;;;;;;;15.66;67.42;101783.00;6247526;23;20356;-80
2022/05/18 01:00:55;;;;;;;2.72;2.53;;;;;;;15.62;67.66;101781.38;6246394;23;20011;-80
2022/05/18 01:03:23;;;;;;;2.83;2.60;;;;;;;15.57;67.51;101787.56;6247134;23;20005;-80
2022/05/18 01:06:02;;;;;;;3.10;2.70;;;;;;;15.55;67.97;101784.09;6246813;23;20001;-80
2022/05/18 01:09:05;;;;;;;3.00;2.70;;;;;;;15.51;67.75;101790.31;6244235;22;20023;-80
2022/05/18 01:12:14;;;;;;;3.25;2.65;;;;;;;15.49;67.59;101786.88;6246873;23;20417;-81
2022/05/18 01:15:15;;;;;;;3.33;2.50;;;;;;;15.46;68.06;101789.53;6245946;23;20008;-80
2022/05/18 01:21:20;;;;;;;2.80;2.60;;;;;;;15.36;67.91;101795.84;6247283;23;20019;-80
2022/05/18 01:27:10;;;;;;;2.80;2.50;;;;;;;15.33;68.21;101790.66;6237653;22;20024;-80
2022/05/18 01:29:56;;;;;;;3.20;2.80;;;;;;;15.29;68.30;101787.25;6244930;23;20030;-80
2022/05/18 01:32:21;;;;;;;3.78;2.80;;;;;;;15.27;68.49;101795.16;6246115;23;20019;-80
2022/05/18 01:34:47;;;;;;;3.73;2.90;;;;;;;15.26;68.50;101787.31;6246910;23;20000;-80
2022/05/18 01:37:16;;;;;;;4.33;3.07;;;;;;;15.22;68.12;101783.91;6245929;23;20070;-80
2022/05/18 01:39:51;;;;;;;4.53;2.90;;;;;;;15.22;68.65;101790.91;6246261;23;20000;-80
2022/05/18 01:42:49;;;;;;;3.20;2.60;;;;;;;15.19;68.75;101786.59;6246762;23;20036;-81
2022/05/18 01:45:14;;;;;;;3.30;2.80;;;;;;;15.17;68.86;101791.00;6246995;23;20015;-81
2022/05/18 01:47:40;;;;;;;3.60;2.83;;;;;;;15.15;68.91;101792.78;6246520;23;20012;-81
2022/05/18 01:50:09;;;;;;;3.30;2.80;;;;;;;15.13;69.11;101798.03;6247291;23;20008;-82
2022/05/18 01:52:36;;;;;;;3.45;2.58;;;;;;;15.09;69.21;101785.91;6247882;23;20413;-81
2022/05/18 01:55:03;;;;;;;2.90;2.47;;;;;;;15.04;69.40;101781.66;6246830;23;20076;-81
2022/05/18 01:57:28;;;;;;;3.25;2.70;;;;;;;15.00;69.36;101785.22;6245169;23;20133;-81
2022/05/18 01:59:54;;;;;;;3.43;2.80;;;;;;;14.96;69.38;101781.78;6246139;23;20024;-81
2022/05/18 02:02:19;;;;;;;2.97;2.60;;;;;;;14.95;69.79;101787.91;6246410;23;20008;-81
2022/05/18 02:04:44;;;;;;;2.83;2.53;;;;;;;14.91;69.79;101784.50;6245402;23;20138;-81
2022/05/18 02:07:11;;;;;;;2.80;2.50;;;;;;;14.92;69.73;101788.84;6246389;23;20016;-81
2022/05/18 02:09:37;;;;;;;3.20;2.55;;;;;;;14.91;69.73;101794.09;6246104;23;20000;-81
2022/05/18 02:12:05;;;;;;;2.58;2.38;;;;;;;14.87;70.06;101789.81;6245604;23;20043;-81
2022/05/18 02:14:30;;;;;;;2.60;2.40;;;;;;;14.86;70.24;101780.25;6245273;23;20039;-81
2022/05/18 02:16:55;;;;;;;3.00;2.57;;;;;;;14.85;70.13;101784.63;6246049;23;20008;-81
2022/05/18 02:19:21;;;;;;;2.40;2.20;;;;;;;14.82;70.48;101789.91;6245771;23;20004;-81
2022/05/18 02:21:46;;;;;;;2.40;2.20;;;;;;;14.79;70.37;101787.34;6246011;23;20051;-81
2022/05/18 02:24:12;;;;;;;3.07;2.40;;;;;;;14.76;70.74;101784.75;6245717;23;20460;-81
2022/05/18 02:26:38;;;;;;;2.83;2.43;;;;;;;14.76;70.64;101782.16;6244108;23;20128;-81
2022/05/18 02:29:09;;;;;;;2.63;2.40;;;;;;;14.69;71.00;101772.72;6243100;22;20437;-81
2022/05/18 02:31:43;;;;;;;3.25;2.50;;;;;;;14.68;70.94;101779.69;6245837;23;20075;-81
2022/05/18 02:41:00;;;;;;;2.90;2.47;;;;;;;14.59;71.15;101774.56;6244510;23;20016;-81
2022/05/18 02:43:37;;;;;;;2.85;2.50;;;;;;;14.63;71.05;101779.75;6246355;23;20004;-81
2022/05/18 02:46:25;;;;;;;2.72;2.53;;;;;;;14.62;71.09;101778.03;6244969;23;20034;-81
2022/05/18 03:03:19;;;;;;;3.38;2.67;;;;;;;14.59;71.25;101783.28;6245468;23;20023;-79
2022/05/18 03:16:21;;;;;;;3.40;2.70;;;;;;;14.64;72.35;101796.28;6244441;23;20047;-79
2022/05/18 03:18:47;;;;;;;3.13;2.70;;;;;;;14.63;72.27;101791.94;6244857;23;20091;-81
2022/05/18 03:30:50;;;;;;;3.25;2.50;;;;;;;14.60;72.79;101807.66;6244478;23;20022;-81
2022/05/18 03:51:14;;;;;;;3.00;2.30;;;;;;;14.60;73.00;101818.97;6225639;22;20020;-81
2022/05/18 03:53:40;;;;;;;2.60;2.40;;;;;;;14.61;73.29;101831.16;6245003;23;20083;-81
2022/05/18 04:06:26;;;;;;;2.92;2.20;;;;;;;14.52;75.58;101815.63;6226590;22;20086;-80
2022/05/18 04:08:52;;;;;;;2.20;2.00;;;;;;;14.52;75.70;101826.09;6244468;23;20012;-80
2022/05/18 04:11:17;;;;;;;2.45;2.25;;;;;;;14.52;75.08;101819.09;6244523;23;20082;-81
2022/05/18 04:13:43;;;;;;;2.60;2.30;;;;;;;14.53;74.71;101817.34;6244991;23;20016;-80
2022/05/18 04:16:09;;;;;;;2.30;2.10;;;;;;;14.56;75.17;101816.44;6247302;23;20007;-80
2022/05/18 04:18:34;;;;;;;2.20;2.00;;;;;;;14.59;74.52;101817.25;6246551;23;20368;-80
2022/05/18 04:21:01;;;;;;;2.20;2.00;;;;;;;14.65;74.46;101819.75;6247062;23;20039;-80
2022/05/18 04:23:26;;;;;;;2.00;1.90;;;;;;;14.68;74.34;101829.34;6247377;23;20008;-80
2022/05/18 04:25:52;;;;;;;2.07;1.90;;;;;;;14.76;75.19;101831.81;6245941;23;20325;-80
2022/05/18 04:28:18;;;;;;;1.90;1.80;;;;;;;14.82;74.80;101831.72;6247460;23;20027;-79
2022/05/18 04:30:46;;;;;;;1.77;1.67;;;;;;;14.89;75.49;101828.09;6245195;23;20020;-80
2022/05/18 04:33:22;;;;;;;1.70;1.60;;;;;;;14.97;76.39;101835.81;6246579;23;20007;-80
2022/05/18 04:35:50;;;;;;;1.80;1.70;;;;;;;15.05;76.50;101840.91;6247107;23;20055;-80
2022/05/18 04:38:16;;;;;;;2.40;2.20;;;;;;;15.13;77.38;101836.38;6245504;23;20014;-80
2022/05/18 04:40:42;;;;;;;2.40;2.20;;;;;;;15.19;77.78;101836.28;6245137;23;20011;-80
2022/05/18 04:43:10;;;;;;;2.53;2.33;;;;;;;15.27;77.56;101838.72;6247205;23;20000;-80
2022/05/18 04:45:36;;;;;;;2.95;2.60;;;;;;;15.35;77.75;101841.19;6245453;23;20325;-80
2022/05/18 04:48:02;;;;;;;2.47;2.28;;;;;;;15.43;77.11;101841.91;6247184;23;20091;-80
2022/05/18 04:50:27;;;;;;;2.63;2.10;;;;;;;15.49;75.60;101840.91;6247176;23;20012;-80
2022/05/18 04:52:52;;;;;;;2.40;2.20;;;;;;;15.57;75.49;101854.75;6245850;23;20004;-80
2022/05/18 04:55:18;;;;;;;2.90;2.30;;;;;;;15.65;75.46;101855.44;6247103;23;20008;-80
2022/05/18 04:57:43;;;;;;;2.50;2.20;;;;;;;15.72;76.64;101859.63;6246326;23;20290;-80
2022/05/18 05:00:12;;;;;;;2.50;2.10;;;;;;;15.78;76.68;101863.88;6246063;23;20004;-80
2022/05/18 05:02:38;;;;;;;2.13;2.03;;;;;;;15.83;76.39;101856.81;6246229;23;20011;-80
2022/05/18 05:05:09;;;;;;;2.50;2.10;;;;;;;15.87;76.57;101868.97;6246645;23;20011;-80
2022/05/18 05:07:34;;;;;;;2.50;2.30;;;;;;;15.92;76.89;101870.63;6245474;23;20020;-80
2022/05/18 05:10:00;;;;;;;3.03;2.60;;;;;;;15.98;78.38;101873.13;6246351;23;20368;-80
2022/05/18 05:12:26;;;;;;;3.60;3.10;;;;;;;16.04;79.08;101868.59;6247046;23;20015;-80
2022/05/18 05:14:51;;;;;;;4.78;3.80;;;;;;;16.14;77.11;101876.28;6245352;23;20075;-80
2022/05/18 05:17:16;;;;;;;5.00;3.60;;;;;;;16.27;77.77;101876.84;6246867;23;20082;-80
2022/05/18 05:19:42;;;;;;;4.10;3.30;;;;;;;16.40;77.21;101873.06;6246466;23;20054;-80
2022/05/18 05:22:07;;;;;;;4.00;3.10;;;;;;;16.58;77.70;101873.50;6245998;23;20007;-80
2022/05/18 05:24:32;;;;;;;4.60;3.27;;;;;;;16.76;76.62;101878.31;6246848;23;20088;-80
2022/05/18 05:26:58;;;;;;;4.00;3.00;;;;;;;16.94;75.85;101876.16;6246187;23;20008;-80
2022/05/18 05:29:23;;;;;;;6.43;3.80;;;;;;;17.09;75.95;101875.75;6245899;23;20039;-80
2022/05/18 05:31:48;;;;;;;5.97;3.83;;;;;;;17.27;75.29;101884.91;6246369;23;20410;-82
2022/05/18 05:34:14;;;;;;;4.40;3.53;;;;;;;17.44;72.56;101886.19;6246868;23;20008;-81
2022/05/18 05:36:39;;;;;;;4.88;3.80;;;;;;;17.54;73.15;101882.41;6245185;23;20015;-81
2022/05/18 05:39:05;;;;;;;4.47;3.27;;;;;;;17.65;73.21;101887.38;6246600;23;20307;-81
2022/05/18 05:41:30;;;;;;;5.93;3.50;;;;;;;17.72;72.97;101888.91;6246655;23;20011;-81
2022/05/18 05:43:56;;;;;;;4.87;3.37;;;;;;;17.78;72.74;101889.66;6245343;23;20004;-81
2022/05/18 05:46:23;;;;;;;6.43;3.30;;;;;;;17.82;72.48;101896.50;6246743;23;20004;-81
2022/05/18 05:48:49;;;;;;;3.40;2.83;;;;;;;17.89;72.15;101903.31;6245270;23;20012;-81
2022/05/18 05:51:16;;;;;;;2.60;2.40;;;;;;;17.93;72.03;101896.22;6246514;23;20008;-82
2022/05/18 05:53:46;;;;;;;4.13;2.72;;;;;;;18.01;71.45;101907.38;6245474;23;20079;-82
2022/05/18 05:56:13;;;;;;;3.03;2.45;;;;;;;18.12;71.48;101904.44;6246008;23;20015;-82
2022/05/18 05:58:40;;;;;;;2.65;2.35;;;;;;;18.23;71.66;101907.59;6246098;23;20004;-82
2022/05/18 06:01:08;;;;;;;2.17;2.08;;;;;;;18.38;71.66;101908.91;6246415;23;20012;-80
2022/05/18 06:03:34;;;;;;;2.10;2.00;;;;;;;18.50;71.10;101908.50;6245579;23;20091;-80
2022/05/18 06:06:00;;;;;;;2.35;2.15;;;;;;;18.65;71.02;101907.16;6245736;23;20020;-80
2022/05/18 06:08:26;;;;;;;2.10;2.00;;;;;;;18.78;70.88;101906.75;6246764;23;20010;-80
2022/05/18 06:10:52;;;;;;;2.50;2.30;;;;;;;18.91;70.23;101915.09;6244793;23;20005;-80
2022/05/18 06:13:18;;;;;;;3.20;2.60;;;;;;;19.03;69.29;101917.34;6246696;23;20011;-80
2022/05/18 06:15:43;;;;;;;4.20;2.80;;;;;;;19.13;69.31;101918.75;6246191;23;20016;-80
2022/05/18 06:18:09;;;;;;;3.03;2.67;;;;;;;19.24;68.43;101923.66;6245106;23;20004;-80
2022/05/18 06:20:34;;;;;;;3.30;2.60;;;;;;;19.32;67.87;101914.63;6246254;23;20008;-80
2022/05/18 06:23:02;;;;;;;2.93;2.63;;;;;;;19.36;67.75;101921.50;6246108;23;20011;-80
2022/05/18 06:25:28;;;;;;;2.78;2.58;;;;;;;19.37;67.75;101923.19;6244935;23;20095;-80
2022/05/18 06:27:53;;;;;;;2.40;2.13;;;;;;;19.38;68.20;101938.94;6246180;23;20008;-80
2022/05/18 06:30:19;;;;;;;2.07;1.90;;;;;;;19.40;68.51;101938.88;6246256;23;20405;-80
2022/05/18 06:32:44;;;;;;;1.80;1.70;;;;;;;19.42;68.40;101939.69;6244794;23;20028;-80
2022/05/18 06:35:09;;;;;;;1.93;1.50;;;;;;;19.45;68.52;101947.50;6245919;23;20015;-80
2022/05/18 06:37:35;;;;;;;1.50;1.40;;;;;;;19.48;68.53;101947.38;6245486;23;20035;-80
2022/05/18 06:40:06;;;;;;;1.43;1.37;;;;;;;19.53;67.19;101948.06;6245469;23;20004;-80
2022/05/18 06:42:32;;;;;;;1.58;1.48;;;;;;;19.58;67.67;101942.66;6245954;23;20433;-80
2022/05/18 06:44:58;;;;;;;1.63;1.52;;;;;;;19.64;67.56;101952.09;6245740;23;20744;-80
2022/05/18 06:47:24;;;;;;;1.60;1.50;;;;;;;19.72;67.55;101958.81;6244832;23;20007;-80
2022/05/18 06:49:49;;;;;;;1.30;1.30;;;;;;;19.80;67.60;101949.75;6245429;23;20004;-80
2022/05/18 06:52:14;;;;;;;2.37;1.87;;;;;;;19.86;65.88;101952.22;6245069;23;20032;-80
2022/05/18 06:54:39;;;;;;;2.10;2.00;;;;;;;19.92;66.20;101959.03;6245644;23;20486;-80
2022/05/18 06:57:05;;;;;;;2.13;2.00;;;;;;;19.96;64.73;101958.00;6245839;23;20008;-81
2022/05/18 06:59:30;;;;;;;5.23;2.60;;;;;;;20.01;64.90;101958.69;6244712;23;20058;-81
2022/05/18 07:01:56;;;;;;;2.30;2.10;;;;;;;20.06;65.30;101964.63;6245153;23;20108;-80
2022/05/18 07:04:21;;;;;;;2.60;2.00;;;;;;;20.12;65.36;101966.19;6246008;23;20039;-82
2022/05/18 07:06:47;;;;;;;2.42;2.22;;;;;;;20.15;65.44;101966.06;6243850;23;20008;-81
2022/05/18 07:09:15;;;;;;;2.37;2.10;;;;;;;20.17;65.58;101977.41;6244044;23;20004;-81
2022/05/18 07:11:42;;;;;;;1.80;1.70;;;;;;;20.19;65.67;101973.81;6245502;23;20000;-81
2022/05/18 07:14:07;;;;;;;;;;;;;;;20.22;65.32;101988.63;6245762;23;20004;-82
2022/05/18 07:16:35;;;;;;;;;;;;;;;20.22;64.53;101986.00;6246356;23;20362;-82
2022/05/18 07:19:01;;;;;;;3.03;1.90;;;;;;;20.27;64.74;101980.53;6245492;23;19957;-82
2022/05/18 07:21:28;;;;;;;2.25;2.03;;;;;;;20.43;64.66;101981.69;6244817;23;20321;-82
2022/05/18 07:23:54;;;;;;;4.32;2.67;;;;;;;20.73;63.80;101981.38;6245616;23;20000;-82
2022/05/18 07:26:21;;;;;;;3.63;2.40;;;;;;;21.03;63.96;101989.03;6245636;23;20004;-81
2022/05/18 07:28:46;;;;;;;3.22;2.50;;;;;;;21.24;63.34;101979.34;6244369;23;20004;-81
2022/05/18 07:31:12;;;;;;;6.70;3.90;;;;;;;21.43;62.95;101984.69;6245532;23;20406;-80
2022/05/18 07:33:38;;;;;;;7.43;3.88;;;;;;;21.52;62.67;101988.72;6245505;23;20035;-79
2022/05/18 07:36:04;;;;;;;4.17;3.20;;;;;;;21.59;63.14;101990.19;6244818;23;20008;-80
2022/05/18 07:38:32;;;;;;;3.60;2.92;;;;;;;21.67;63.20;101987.22;6245689;23;20071;-80
2022/05/18 07:40:58;;;;;;;2.95;2.60;;;;;;;21.71;62.69;101986.16;6245168;23;20066;-80
2022/05/18 07:43:23;;;;;;;3.65;2.70;;;;;;;21.70;62.83;101976.53;6244398;23;20008;-80
2022/05/18 07:45:51;;;;;;;2.40;2.20;;;;;;;21.73;62.70;101992.22;6245149;23;20000;-82
2022/05/18 07:48:16;;;;;;;2.80;2.20;;;;;;;21.73;62.64;101986.09;6245470;23;20046;-82
2022/05/18 07:50:42;;;;;;;3.80;2.23;;;;;;;21.85;62.93;101993.47;6246622;23;20425;-82
2022/05/18 07:53:08;;;;;;;4.25;2.30;;;;;;;21.99;63.67;101995.47;6247042;23;20333;-83
2022/05/18 07:55:33;;;;;;;2.05;1.90;;;;;;;22.18;63.02;101997.31;6246746;23;20404;-83
2022/05/18 07:58:03;;;;;;;2.43;1.80;;;;;;;22.45;62.92;102002.25;6246825;23;20058;-83
2022/05/18 08:00:28;;;;;;;1.67;1.58;;;;;;;22.73;62.52;102003.59;6247274;23;20066;-83
2022/05/18 08:02:53;;;;;;;3.30;2.30;;;;;;;22.91;60.89;102005.31;6246212;23;20413;-83
2022/05/18 08:05:19;;;;;;;1.90;1.80;;;;;;;22.94;61.21;102012.25;6247615;23;20008;-82
2022/05/18 08:07:50;;;;;;;2.00;1.90;;;;;;;22.97;61.51;101998.88;6246817;23;20091;-83
2022/05/18 08:15:48;;;;;;;2.15;1.95;;;;;;;22.93;61.23;102019.34;6246841;23;20095;-82
2022/05/18 08:18:16;;;;;;;1.80;1.70;;;;;;;22.99;61.18;102023.47;6246616;23;20012;-82
2022/05/18 08:20:43;;;;;;;1.70;1.60;;;;;;;23.09;60.72;102013.28;6246818;23;20004;-82
2022/05/18 08:23:09;;;;;;;3.78;2.38;;;;;;;23.23;57.70;102007.34;6246906;23;20030;-82
2022/05/18 08:25:35;;;;;;;3.72;2.67;;;;;;;23.30;59.94;101995.50;6245630;23;20413;-83
2022/05/18 08:28:01;;;;;;;2.53;2.30;;;;;;;23.35;60.03;102003.19;6246921;23;20057;-82
2022/05/18 08:30:30;;;;;;;1.90;1.80;;;;;;;23.48;60.09;102004.28;6246719;23;20364;-81
2022/05/18 08:32:58;;;;;;;2.00;1.90;;;;;;;23.64;59.90;102007.00;6245984;23;20047;-82
2022/05/18 08:35:24;;;;;;;2.20;1.80;;;;;;;23.82;60.39;102013.13;6247483;23;20325;-83
2022/05/18 08:37:50;;;;;;;2.30;2.10;;;;;;;23.99;59.18;102017.56;6245503;23;20008;-82
2022/05/18 08:40:38;;;;;;;1.60;1.50;;;;;;;24.11;59.50;102023.97;6247301;23;20000;-82
2022/05/18 08:43:07;;;;;;;1.60;1.50;;;;;;;24.22;59.27;102020.75;6247637;23;20004;-82
2022/05/18 08:45:37;;;;;;;2.10;1.90;;;;;;;24.33;58.88;102015.72;6246481;23;20004;-82
2022/05/18 08:48:09;;;;;;;1.50;1.40;;;;;;;24.45;59.01;102018.63;6247304;23;20000;-81
2022/05/18 08:50:37;;;;;;;3.10;2.17;;;;;;;24.52;56.97;102023.53;6246875;23;20004;-81
2022/05/18 08:53:38;;;;;;;1.90;1.80;;;;;;;24.55;58.39;102022.47;6246195;23;20008;-83
2022/05/18 08:56:25;;;;;;;1.50;1.40;;;;;;;24.71;58.36;102027.81;6247286;23;20026;-82
2022/05/18 08:59:05;;;;;;;6.68;3.90;;;;;;;24.75;56.18;102025.84;6245782;23;20060;-82
2022/05/18 09:01:40;;;;;;;4.78;3.17;;;;;;;24.72;57.21;102020.69;6246596;23;20032;-82
2022/05/18 09:04:11;;;;;;;3.00;2.70;;;;;;;24.83;55.97;102021.81;6247751;23;20004;-83
2022/05/18 09:06:42;;;;;;;4.03;2.63;;;;;;;24.92;55.53;102019.56;6245387;23;20012;-85
2022/05/18 09:12:02;;;;;;;2.50;2.30;;;;;;;25.18;56.25;102031.31;6246472;23;20111;-82
2022/05/18 09:14:32;;;;;;;3.00;2.25;;;;;;;25.29;55.20;102022.72;6245570;23;20004;-81
2022/05/18 09:17:16;;;;;;;2.72;2.20;;;;;;;25.34;55.37;102023.28;6246180;23;20004;-81
2022/05/18 09:19:53;;;;;;;2.50;2.30;;;;;;;25.43;54.92;102022.81;6245814;23;20528;-81
2022/05/18 09:22:47;;;;;;;3.53;2.70;;;;;;;25.47;54.07;102018.16;6246859;23;20008;-81
2022/05/18 09:25:37;;;;;;;2.20;2.00;;;;;;;25.55;52.22;102015.03;6246902;23;20036;-82
2022/05/18 09:28:31;;;;;;;4.95;3.05;;;;;;;25.54;50.96;102019.47;6245984;23;20004;-82
2022/05/18 09:31:10;;;;;;;4.32;2.75;;;;;;;25.40;51.70;102032.69;6246848;23;20042;-82
2022/05/18 09:33:55;;;;;;;2.92;2.40;;;;;;;25.55;54.22;102033.63;6247081;23;20333;-81
2022/05/18 09:36:42;;;;;;;2.95;2.47;;;;;;;25.59;53.38;102017.41;6246941;23;20035;-82
2022/05/18 09:39:13;;;;;;;4.68;2.70;;;;;;;25.48;52.80;102029.63;6246790;23;20083;-81
2022/05/18 09:41:50;;;;;;;2.65;2.20;;;;;;;25.49;50.83;102031.34;6245228;23;20373;-81
2022/05/18 09:44:25;;;;;;;2.38;1.95;;;;;;;25.48;51.88;102019.88;6246453;23;20000;-83
2022/05/18 09:46:51;;;;;;;1.73;1.63;;;;;;;25.55;52.73;102021.19;6246475;23;20008;-81
2022/05/18 09:49:29;;;;;;;2.45;1.98;;;;;;;25.71;51.11;102031.75;6245535;23;20079;-82
2022/05/18 09:51:58;;;;;;;1.52;1.40;;;;;;;25.78;52.75;102026.06;6245527;23;20348;-83
2022/05/18 09:54:23;;;;;;;1.30;1.20;;;;;;;25.88;52.80;102025.38;6246563;23;20034;-80
2022/05/18 09:57:00;;;;;;;1.15;1.05;;;;;;;26.03;53.07;102030.72;6245350;23;20004;-82
2022/05/18 09:59:30;;;;;;;1.00;1.00;;;;;;;26.17;53.20;102020.09;6247661;23;20012;-81
2022/05/18 10:07:30;;;;;;;3.00;2.20;;;;;;;26.36;51.07;102022.44;6245991;23;20082;-81
2022/05/18 10:10:14;;;;;;;4.28;2.50;;;;;;;26.51;48.00;102025.91;6245302;23;20008;-83
2022/05/18 10:12:46;;;;;;;2.03;1.90;;;;;;;26.56;49.99;102022.97;6246012;23;20107;-83
2022/05/18 10:15:32;;;;;;;2.00;1.80;;;;;;;26.55;50.65;102023.91;6246585;23;20000;-83
2022/05/18 10:18:19;;;;;;;4.18;2.50;;;;;;;26.51;47.62;102020.56;6245060;23;20011;-83
2022/05/18 10:21:06;;;;;;;4.35;2.60;;;;;;;26.27;47.12;102015.03;6246573;23;20046;-83
2022/05/18 10:23:51;;;;;;;3.05;2.20;;;;;;;26.12;49.37;102016.88;6245375;23;20000;-83
2022/05/18 10:26:38;;;;;;;;;;;;;;;26.33;50.27;102027.97;6244885;23;20019;-84
2022/05/18 10:29:19;;;;;;;2.17;1.80;;;;;;;26.63;50.26;102023.41;6241048;23;20331;-84
2022/05/18 10:32:01;;;;;;;1.98;1.60;;;;;;;26.85;47.91;102019.38;6244948;23;20026;-81
2022/05/18 10:34:30;;;;;;;2.03;1.85;;;;;;;27.00;49.29;102023.66;6244213;23;20075;-81
2022/05/18 10:37:10;;;;;;;2.72;1.88;;;;;;;27.06;45.46;102025.06;6244848;23;20033;-82
2022/05/18 10:39:38;;;;;;;6.38;2.65;;;;;;;26.62;46.43;102011.91;6245413;23;20004;-83
2022/05/18 10:42:10;;;;;;;2.30;1.90;;;;;;;26.57;48.30;102007.84;6245040;23;20031;-83
2022/05/18 10:44:38;;;;;;;1.65;1.55;;;;;;;26.80;47.22;102015.19;6244700;23;20004;-84
2022/05/18 10:47:38;;;;;;;1.58;1.48;;;;;;;26.97;46.85;102014.09;6161702;23;20018;-83
2022/05/18 10:50:29;;;;;;;3.03;2.30;;;;;;;26.88;43.37;102013.84;6245862;23;19996;-83
2022/05/18 10:53:02;;;;;;;1.67;1.58;;;;;;;27.01;47.11;102009.41;6226389;23;20358;-83
2022/05/18 10:55:30;;;;;;;1.55;1.45;;;;;;;27.23;46.43;102002.63;6238553;23;20101;-82
2022/05/18 10:58:05;;;;;;;1.83;1.40;;;;;;;27.41;46.68;102001.38;6244171;23;20005;-83
2022/05/18 11:00:47;;;;;;;1.55;1.45;;;;;;;27.53;42.58;102004.16;6244964;23;20345;-82
2022/05/18 11:03:31;;;;;;;2.03;1.65;;;;;;;27.57;45.82;102003.00;6245962;23;20008;-83
2022/05/18 11:06:18;;;;;;;1.42;1.33;;;;;;;27.77;45.59;102006.06;6243848;23;20333;-82
2022/05/18 11:08:43;;;;;;;1.48;1.38;;;;;;;27.94;44.77;102007.53;6245663;23;20333;-83
2022/05/18 11:11:34;;;;;;;;;;;;;;;27.97;43.43;102008.19;6246065;23;20007;-82
2022/05/18 11:14:12;;;;;;;1.98;1.80;;;;;;;28.09;43.73;102013.66;6197450;23;19907;-83
2022/05/18 11:16:56;;;;;;;1.58;1.48;;;;;;;28.22;44.09;102006.44;6245388;23;20298;-83
2022/05/18 11:19:41;;;;;;;1.58;1.48;;;;;;;28.32;44.96;102003.97;6244951;23;20436;-83
2022/05/18 11:22:40;;;;;;;3.33;1.70;;;;;;;28.42;42.06;101998.81;6245755;23;20004;-83
2022/05/18 11:25:43;;;;;;;1.50;1.40;;;;;;;28.51;45.12;102001.66;6245723;23;20008;-83
2022/05/18 11:28:37;;;;;;;1.85;1.23;;;;;;;28.76;45.67;101999.03;6244722;23;20374;-83
2022/05/18 11:31:27;;;;;;;1.63;1.45;;;;;;;28.93;42.46;101995.91;6245787;23;20333;-83
2022/05/18 11:34:06;;;;;;;2.63;1.42;;;;;;;28.93;44.90;101995.91;6244288;23;20011;-83
2022/05/18 11:36:58;;;;;;;4.65;2.60;;;;;;;28.79;41.21;101990.75;6245834;23;20321;-83
2022/05/18 11:39:42;;;;;;;2.92;1.90;;;;;;;28.60;44.23;101992.09;6245158;23;20445;-83
2022/05/18 11:42:41;;;;;;;1.60;1.50;;;;;;;28.79;44.72;101996.97;6244609;23;20070;-83
2022/05/18 11:45:25;;;;;;;1.40;1.30;;;;;;;28.98;43.51;101982.22;6245669;23;20004;-83
2022/05/18 11:48:46;;;;;;;1.60;1.50;;;;;;;29.19;44.16;101986.88;6243979;23;20014;-83
2022/05/18 11:51:48;;;;;;;1.48;1.38;;;;;;;29.24;43.56;101976.69;6093927;23;20006;-83
2022/05/18 11:54:16;;;;;;;1.80;1.70;;;;;;;29.19;40.90;101976.19;6245449;23;20456;-83
2022/05/18 11:56:50;;;;;;;3.30;2.30;;;;;;;28.93;42.30;101976.38;6244000;23;20043;-83
2022/05/18 11:59:52;;;;;;;1.42;1.33;;;;;;;29.02;43.47;101990.84;6245546;23;20008;-83
2022/05/18 12:03:02;;;;;;;1.55;1.45;;;;;;;29.01;43.90;101991.81;6244469;23;20013;-83
2022/05/18 12:05:38;;;;;;;1.30;1.20;;;;;;;29.02;43.66;101994.38;6245539;23;20016;-84
2022/05/18 12:08:41;;;;;;;0.90;0.90;;;;;;;29.07;44.12;101989.50;6245057;23;20023;-83
2022/05/18 12:11:25;;;;;;;3.38;1.80;;;;;;;29.24;40.38;101980.19;6245320;23;20459;-83
2022/05/18 12:14:09;;;;;;;1.63;1.50;;;;;;;29.31;44.07;101977.91;6245327;23;20008;-83
2022/05/18 12:16:42;;;;;;;1.20;1.10;;;;;;;29.39;43.82;101982.69;6244631;23;20008;-83
2022/05/18 12:19:26;;;;;;;1.17;1.13;;;;;;;29.42;43.87;101975.28;6244721;23;20000;-83
2022/05/18 12:22:12;;;;;;;1.65;1.55;;;;;;;29.29;43.04;101969.16;6244638;23;20050;-83
2022/05/18 12:24:39;;;;;;;1.17;1.05;;;;;;;29.13;43.18;101975.69;6244143;23;20070;-83
2022/05/18 12:27:07;;;;;;;1.85;1.20;;;;;;;29.01;42.72;101981.97;6245591;23;20075;-83
2022/05/18 12:29:34;;;;;;;1.58;1.48;;;;;;;28.79;44.12;101980.06;6245204;23;20008;-83
2022/05/18 12:32:00;;;;;;;1.05;1.02;;;;;;;28.85;43.27;101984.09;6244343;23;20000;-83
2022/05/18 12:34:34;;;;;;;;;;;;;;;28.81;41.37;101983.47;6246195;23;20034;-83
2022/05/18 12:37:14;;;;;;;2.00;1.77;;;;;;;28.64;42.72;101982.91;6245478;23;19907;-83
2022/05/18 12:39:47;;;;;;;3.17;2.10;;;;;;;28.62;43.20;101987.50;6247087;23;20004;-83
2022/05/18 12:42:22;;;;;;;2.00;1.80;;;;;;;28.71;43.87;101980.59;6246930;23;20437;-83
2022/05/18 12:44:57;;;;;;;2.22;2.03;;;;;;;28.69;41.28;101985.25;6245661;23;20011;-83
2022/05/18 12:47:26;;;;;;;3.50;2.22;;;;;;;28.39;43.46;101983.84;6246851;23;20452;-83
2022/05/18 12:49:59;;;;;;;1.70;1.60;;;;;;;28.30;43.90;101987.22;6246910;23;20130;-83
2022/05/18 12:52:39;;;;;;;1.52;1.42;;;;;;;28.27;42.09;101982.09;6246172;23;20004;-83
2022/05/18 12:55:26;;;;;;;1.95;1.80;;;;;;;28.27;43.97;101982.97;6246786;23;20448;-82
2022/05/18 12:58:02;;;;;;;4.10;2.22;;;;;;;28.20;43.10;101985.22;6245485;23;20417;-81
2022/05/18 13:00:27;;;;;;;2.35;1.52;;;;;;;28.29;44.20;101975.69;6246679;23;20421;-82
2022/05/18 13:02:57;;;;;;;;;;;;;;;28.59;43.64;101984.22;6247182;23;20031;-81
2022/05/18 13:05:25;;;;;;;2.75;1.60;;;;;;;28.82;43.46;101977.19;6246141;23;19907;-82
2022/05/18 13:08:02;;;;;;;1.73;1.60;;;;;;;29.08;41.67;101974.34;6246258;23;20016;-81
2022/05/18 13:10:32;;;;;;;1.80;1.52;;;;;;;29.26;42.54;101978.25;6247134;23;20036;-82
2022/05/18 13:13:07;;;;;;;6.32;2.60;;;;;;;29.36;39.32;101972.22;6245800;23;20019;-82
2022/05/18 13:15:58;;;;;;;6.13;2.75;;;;;;;28.93;40.30;101974.53;6247106;23;20013;-82
2022/05/18 13:18:37;;;;;;;3.05;2.30;;;;;;;28.90;40.42;101968.59;6247031;23;20008;-82
2022/05/18 13:21:21;;;;;;;4.18;2.50;;;;;;;28.71;40.46;101966.41;6245960;23;20054;-82
2022/05/18 13:24:04;;;;;;;2.55;1.90;;;;;;;28.74;41.83;101963.56;6246592;23;20008;-82
2022/05/18 13:26:39;;;;;;;1.60;1.50;;;;;;;28.84;43.06;101963.69;6245619;23;20010;-81
2022/05/18 13:29:12;;;;;;;2.42;1.60;;;;;;;28.92;41.74;101967.50;6245470;23;20005;-84